sensor_id;sensor_type;location;lat;lon;timestamp;pressure;altitude;pressure_sealevel;temperature;humidity
21109;BME280;10712;52.944;9.098;2023-04-29T00:01:57;100936.16;;;18.27;59.73
21109;BME280;10712;52.944;9.098;2023-04-29T00:04:25;100935.28;;;18.26;59.87
21109;BME280;10712;52.944;9.098;2023-04-29T00:06:51;100929.19;;;18.24;59.79
21109;BME280;10712;52.944;9.098;2023-04-29T00:09:17;100942.81;;;18.23;59.80
21109;BME280;10712;52.944;9.098;2023-04-29T00:11:43;100936.81;;;18.19;59.98
21109;BME280;10712;52.944;9.098;2023-04-29T00:14:08;100942.59;;;18.35;59.58
21109;BME280;10712;52.944;9.098;2023-04-29T00:16:35;100943.97;;;18.30;59.76
21109;BME280;10712;52.944;9.098;2023-04-29T00:19:02;100943.38;;;18.26;59.57
21109;BME280;10712;52.944;9.098;2023-04-29T00:21:28;100951.88;;;18.22;59.76
21109;BME280;10712;52.944;9.098;2023-04-29T00:23:53;100951.88;;;18.22;59.77
21109;BME280;10712;52.944;9.098;2023-04-29T00:26:19;100953.47;;;18.24;59.62
21109;BME280;10712;52.944;9.098;2023-04-29T00:28:47;100956.53;;;18.20;59.87
21109;BME280;10712;52.944;9.098;2023-04-29T00:31:13;100962.34;;;18.15;59.88
21109;BME280;10712;52.944;9.098;2023-04-29T00:33:39;100970.03;;;18.20;59.69
21109;BME280;10712;52.944;9.098;2023-04-29T00:36:06;100961.50;;;18.15;59.95
21109;BME280;10712;52.944;9.098;2023-04-29T00:38:33;100968.06;;;18.22;59.59
21109;BME280;10712;52.944;9.098;2023-04-29T00:40:59;100979.50;;;18.14;59.75
21109;BME280;10712;52.944;9.098;2023-04-29T00:43:25;100982.22;;;18.14;59.81
21109;BME280;10712;52.944;9.098;2023-04-29T00:45:51;100985.03;;;18.13;59.78
21109;BME280;10712;52.944;9.098;2023-04-29T00:48:17;100984.16;;;18.12;59.93
21109;BME280;10712;52.944;9.098;2023-04-29T00:50:42;100989.00;;;18.08;59.85
21109;BME280;10712;52.944;9.098;2023-04-29T00:53:10;100995.38;;;18.07;59.95
21109;BME280;10712;52.944;9.098;2023-04-29T00:55:38;100997.81;;;18.10;59.93
21109;BME280;10712;52.944;9.098;2023-04-29T00:58:04;100999.78;;;18.08;59.91
21109;BME280;10712;52.944;9.098;2023-04-29T01:00:30;101001.75;;;18.06;59.98
21109;BME280;10712;52.944;9.098;2023-04-29T01:02:57;101011.09;;;18.02;60.06
21109;BME280;10712;52.944;9.098;2023-04-29T01:05:24;101012.53;;;18.06;59.88
21109;BME280;10712;52.944;9.098;2023-04-29T01:08:24;101014.50;;;18.04;59.81
21109;BME280;10712;52.944;9.098;2023-04-29T01:11:09;101015.50;;;18.03;59.88
21109;BME280;10712;52.944;9.098;2023-04-29T01:13:47;101023.31;;;18.06;59.73
21109;BME280;10712;52.944;9.098;2023-04-29T01:17:14;101031.91;;;18.00;59.82
21109;BME280;10712;52.944;9.098;2023-04-29T01:21:57;101036.31;;;18.01;59.80
21109;BME280;10712;52.944;9.098;2023-04-29T01:24:23;101046.13;;;18.02;59.72
21109;BME280;10712;52.944;9.098;2023-04-29T01:27:06;101042.25;;;17.95;59.72
21109;BME280;10712;52.944;9.098;2023-04-29T01:29:58;101044.53;;;18.00;59.70
21109;BME280;10712;52.944;9.098;2023-04-29T01:38:47;101048.16;;;17.89;59.73
21109;BME280;10712;52.944;9.098;2023-04-29T01:41:48;101054.78;;;17.85;59.76
21109;BME280;10712;52.944;9.098;2023-04-29T01:44:28;101052.81;;;17.87;59.74
21109;BME280;10712;52.944;9.098;2023-04-29T01:46:55;101055.97;;;17.92;59.46
21109;BME280;10712;52.944;9.098;2023-04-29T01:49:29;101057.22;;;17.88;59.72
21109;BME280;10712;52.944;9.098;2023-04-29T01:51:55;101063.00;;;17.84;59.63
21109;BME280;10712;52.944;9.098;2023-04-29T01:54:21;101068.25;;;17.85;59.58
21109;BME280;10712;52.944;9.098;2023-04-29T01:56:48;101067.53;;;17.83;59.52
21109;BME280;10712;52.944;9.098;2023-04-29T01:59:34;101073.16;;;17.80;59.47
21109;BME280;10712;52.944;9.098;2023-04-29T02:02:33;101072.72;;;17.75;59.64
21109;BME280;10712;52.944;9.098;2023-04-29T02:05:09;101079.94;;;17.75;59.66
21109;BME280;10712;52.944;9.098;2023-04-29T02:07:39;101086.88;;;17.77;59.40
21109;BME280;10712;52.944;9.098;2023-04-29T02:10:07;101090.59;;;17.76;59.33
21109;BME280;10712;52.944;9.098;2023-04-29T02:12:38;101093.78;;;17.70;59.42
21109;BME280;10712;52.944;9.098;2023-04-29T02:15:05;101101.03;;;17.69;59.47
21109;BME280;10712;52.944;9.098;2023-04-29T02:17:33;101106.66;;;17.66;59.19
21109;BME280;10712;52.944;9.098;2023-04-29T02:19:59;101106.66;;;17.66;59.11
21109;BME280;10712;52.944;9.098;2023-04-29T02:22:25;101111.44;;;17.63;59.06
21109;BME280;10712;52.944;9.098;2023-04-29T02:24:50;101109.34;;;17.55;59.05
21109;BME280;10712;52.944;9.098;2023-04-29T02:27:16;101114.84;;;17.54;59.01
21109;BME280;10712;52.944;9.098;2023-04-29T02:29:43;101126.59;;;17.53;59.10
21109;BME280;10712;52.944;9.098;2023-04-29T02:32:08;101129.41;;;17.51;58.96
21109;BME280;10712;52.944;9.098;2023-04-29T02:34:37;101132.22;;;17.50;59.11
21109;BME280;10712;52.944;9.098;2023-04-29T02:37:03;101136.16;;;17.46;59.03
21109;BME280;10712;52.944;9.098;2023-04-29T02:39:29;101135.41;;;17.44;59.23
21109;BME280;10712;52.944;9.098;2023-04-29T02:41:55;101147.91;;;17.45;59.01
21109;BME280;10712;52.944;9.098;2023-04-29T02:44:21;101143.88;;;17.39;58.85
21109;BME280;10712;52.944;9.098;2023-04-29T02:46:47;101149.59;;;17.57;58.26
21109;BME280;10712;52.944;9.098;2023-04-29T02:49:13;101151.97;;;17.61;57.92
21109;BME280;10712;52.944;9.098;2023-04-29T02:51:39;101156.50;;;17.61;57.87
21109;BME280;10712;52.944;9.098;2023-04-29T02:54:07;101156.72;;;17.58;58.14
21109;BME280;10712;52.944;9.098;2023-04-29T02:56:32;101162.38;;;17.55;57.97
21109;BME280;10712;52.944;9.098;2023-04-29T02:58:58;101163.22;;;17.55;57.86
21109;BME280;10712;52.944;9.098;2023-04-29T03:01:24;101162.09;;;17.58;57.71
21109;BME280;10712;52.944;9.098;2023-04-29T03:03:50;101164.09;;;17.56;57.77
21109;BME280;10712;52.944;9.098;2023-04-29T03:06:17;101164.09;;;17.56;57.73
21109;BME280;10712;52.944;9.098;2023-04-29T03:08:42;101163.22;;;17.55;57.77
21109;BME280;10712;52.944;9.098;2023-04-29T03:11:08;101169.22;;;17.59;57.60
21109;BME280;10712;52.944;9.098;2023-04-29T03:13:34;101172.88;;;17.58;57.53
21109;BME280;10712;52.944;9.098;2023-04-29T03:16:00;101180.38;;;17.54;57.59
21109;BME280;10712;52.944;9.098;2023-04-29T03:18:26;101179.75;;;17.51;57.57
21109;BME280;10712;52.944;9.098;2023-04-29T03:20:53;101184.63;;;17.23;58.46
21109;BME280;10712;52.944;9.098;2023-04-29T03:23:18;101183.19;;;17.19;58.61
21109;BME280;10712;52.944;9.098;2023-04-29T03:25:44;101193.94;;;17.19;58.57
21109;BME280;10712;52.944;9.098;2023-04-29T03:28:11;101197.84;;;17.15;58.63
21109;BME280;10712;52.944;9.098;2023-04-29T03:30:37;101197.84;;;17.15;58.57
21109;BME280;10712;52.944;9.098;2023-04-29T03:33:03;101189.03;;;17.13;58.67
21109;BME280;10712;52.944;9.098;2023-04-29T03:35:30;101194.66;;;17.10;58.78
21109;BME280;10712;52.944;9.098;2023-04-29T03:38:23;101200.03;;;17.10;58.84
21109;BME280;10712;52.944;9.098;2023-04-29T03:40:52;101207.16;;;17.11;58.82
21109;BME280;10712;52.944;9.098;2023-04-29T03:43:19;101213.78;;;17.18;58.55
21109;BME280;10712;52.944;9.098;2023-04-29T03:45:45;101207.16;;;17.11;58.77
21109;BME280;10712;52.944;9.098;2023-04-29T03:48:13;101210.94;;;17.09;58.81
21109;BME280;10712;52.944;9.098;2023-04-29T03:50:39;101211.66;;;17.11;58.75
21109;BME280;10712;52.944;9.098;2023-04-29T03:53:05;101210.06;;;17.08;58.80
21109;BME280;10712;52.944;9.098;2023-04-29T03:55:31;101216.19;;;17.10;58.67
21109;BME280;10712;52.944;9.098;2023-04-29T03:57:57;101216.44;;;17.07;58.64
21109;BME280;10712;52.944;9.098;2023-04-29T04:00:22;101222.91;;;17.05;58.75
21109;BME280;10712;52.944;9.098;2023-04-29T04:02:53;101234.28;;;17.08;58.65
21109;BME280;10712;52.944;9.098;2023-04-29T04:05:19;101236.50;;;17.03;58.73
21109;BME280;10712;52.944;9.098;2023-04-29T04:07:51;101233.06;;;17.01;58.84
21109;BME280;10712;52.944;9.098;2023-04-29T04:10:29;101234.91;;;17.01;58.90
21109;BME280;10712;52.944;9.098;2023-04-29T04:12:56;101243.59;;;17.04;58.69
21109;BME280;10712;52.944;9.098;2023-04-29T04:15:22;101249.19;;;17.01;58.81
21109;BME280;10712;52.944;9.098;2023-04-29T04:17:48;101250.44;;;16.97;58.84
21109;BME280;10712;52.944;9.098;2023-04-29T04:20:14;101255.69;;;16.99;58.70
21109;BME280;10712;52.944;9.098;2023-04-29T04:22:40;101254.84;;;16.98;58.81
21109;BME280;10712;52.944;9.098;2023-04-29T04:25:32;101262.81;;;17.00;58.62
21109;BME280;10712;52.944;9.098;2023-04-29T04:28:12;101271.50;;;17.03;58.58
21109;BME280;10712;52.944;9.098;2023-04-29T04:31:04;101283.69;;;16.96;58.68
21109;BME280;10712;52.944;9.098;2023-04-29T04:33:30;101281.50;;;17.01;58.47
21109;BME280;10712;52.944;9.098;2023-04-29T04:35:58;101283.81;;;16.94;58.64
21109;BME280;10712;52.944;9.098;2023-04-29T04:38:24;101280.28;;;16.94;58.51
21109;BME280;10712;52.944;9.098;2023-04-29T04:40:51;101289.84;;;16.98;58.37
21109;BME280;10712;52.944;9.098;2023-04-29T04:43:31;101295.44;;;16.95;58.47
21109;BME280;10712;52.944;9.098;2023-04-29T04:45:57;101291.78;;;16.96;58.54
21109;BME280;10712;52.944;9.098;2023-04-29T04:48:23;101300.59;;;16.98;58.46
21109;BME280;10712;52.944;9.098;2023-04-29T04:50:51;101289.34;;;16.93;58.61
21109;BME280;10712;52.944;9.098;2023-04-29T04:53:17;101301.81;;;16.94;58.60
21109;BME280;10712;52.944;9.098;2023-04-29T04:55:49;101303.50;;;16.95;58.79
21109;BME280;10712;52.944;9.098;2023-04-29T04:58:15;101319.44;;;16.98;58.55
21109;BME280;10712;52.944;9.098;2023-04-29T05:00:44;101323.34;;;16.94;58.64
21109;BME280;10712;52.944;9.098;2023-04-29T05:03:11;101328.75;;;16.94;58.82
21109;BME280;10712;52.944;9.098;2023-04-29T05:05:37;101330.22;;;16.98;58.67
21109;BME280;10712;52.944;9.098;2023-04-29T05:08:03;101335.59;;;16.98;58.45
21109;BME280;10712;52.944;9.098;2023-04-29T05:10:36;101333.25;;;16.93;58.85
21109;BME280;10712;52.944;9.098;2023-04-29T05:13:03;101335.81;;;16.95;58.68
21109;BME280;10712;52.944;9.098;2023-04-29T05:15:29;101345.03;;;17.04;58.54
21109;BME280;10712;52.944;9.098;2023-04-29T05:17:58;101346.13;;;17.01;58.67
21109;BME280;10712;52.944;9.098;2023-04-29T05:20:24;101339.03;;;17.00;58.53
21109;BME280;10712;52.944;9.098;2023-04-29T05:22:50;101345.28;;;17.01;58.61
21109;BME280;10712;52.944;9.098;2023-04-29T05:25:16;101350.41;;;17.04;58.64
21109;BME280;10712;52.944;9.098;2023-04-29T05:27:42;101349.34;;;17.06;58.60
21109;BME280;10712;52.944;9.098;2023-04-29T05:30:13;101356.44;;;17.07;58.56
21109;BME280;10712;52.944;9.098;2023-04-29T05:32:39;101354.72;;;17.06;58.65
21109;BME280;10712;52.944;9.098;2023-04-29T05:35:08;101362.69;;;17.08;58.65
21109;BME280;10712;52.944;9.098;2023-04-29T05:37:34;101360.81;;;17.08;58.68
21109;BME280;10712;52.944;9.098;2023-04-29T05:40:08;101364.63;;;17.06;58.69
21109;BME280;10712;52.944;9.098;2023-04-29T05:42:34;101368.91;;;17.08;58.53
21109;BME280;10712;52.944;9.098;2023-04-29T05:45:01;101370.88;;;17.06;58.59
21109;BME280;10712;52.944;9.098;2023-04-29T05:47:27;101368.28;;;17.05;58.56
21109;BME280;10712;52.944;9.098;2023-04-29T05:49:53;101372.81;;;17.04;58.72
21109;BME280;10712;52.944;9.098;2023-04-29T05:52:18;101373.69;;;17.05;58.81
21109;BME280;10712;52.944;9.098;2023-04-29T05:54:47;101384.38;;;17.17;58.36
21109;BME280;10712;52.944;9.098;2023-04-29T05:57:13;101388.03;;;17.16;58.39
21109;BME280;10712;52.944;9.098;2023-04-29T05:59:39;101383.13;;;17.10;58.63
21109;BME280;10712;52.944;9.098;2023-04-29T06:02:05;101389.75;;;17.17;58.65
21109;BME280;10712;52.944;9.098;2023-04-29T06:04:32;101395.16;;;17.17;58.61
21109;BME280;10712;52.944;9.098;2023-04-29T06:07:13;101398.81;;;17.16;58.71
21109;BME280;10712;52.944;9.098;2023-04-29T06:09:47;101405.69;;;17.20;58.72
21109;BME280;10712;52.944;9.098;2023-04-29T06:12:13;101409.09;;;17.22;58.67
21109;BME280;10712;52.944;9.098;2023-04-29T06:14:42;101413.41;;;17.25;58.77
21109;BME280;10712;52.944;9.098;2023-04-29T06:17:08;101422.00;;;17.30;58.56
21109;BME280;10712;52.944;9.098;2023-04-29T06:19:34;101423.50;;;17.34;58.52
21109;BME280;10712;52.944;9.098;2023-04-29T06:22:00;101436.63;;;17.39;58.37
21109;BME280;10712;52.944;9.098;2023-04-29T06:24:25;101442.22;;;17.36;58.45
21109;BME280;10712;52.944;9.098;2023-04-29T06:26:51;101433.44;;;17.45;58.12
21109;BME280;10712;52.944;9.098;2023-04-29T06:29:17;101448.63;;;17.46;58.23
21109;BME280;10712;52.944;9.098;2023-04-29T06:31:43;101435.06;;;17.47;58.32
21109;BME280;10712;52.944;9.098;2023-04-29T06:34:09;101439.22;;;17.51;58.29
21109;BME280;10712;52.944;9.098;2023-04-29T06:36:46;101447.25;;;17.64;58.21
21109;BME280;10712;52.944;9.098;2023-04-29T06:39:43;101446.06;;;17.68;58.06
21109;BME280;10712;52.944;9.098;2023-04-29T06:42:27;101448.19;;;17.76;58.15
21109;BME280;10712;52.944;9.098;2023-04-29T06:45:12;101451.00;;;17.85;58.00
21109;BME280;10712;52.944;9.098;2023-04-29T06:47:40;101455.91;;;17.91;58.07
21109;BME280;10712;52.944;9.098;2023-04-29T06:50:10;101457.41;;;17.95;58.01
21109;BME280;10712;52.944;9.098;2023-04-29T06:52:36;101467.34;;;17.95;57.70
21109;BME280;10712;52.944;9.098;2023-04-29T06:55:03;101464.28;;;17.99;57.51
21109;BME280;10712;52.944;9.098;2023-04-29T06:57:29;101476.66;;;18.02;57.66
21109;BME280;10712;52.944;9.098;2023-04-29T06:59:54;101480.59;;;18.09;57.61
21109;BME280;10712;52.944;9.098;2023-04-29T07:02:20;101483.91;;;18.13;57.60
21109;BME280;10712;52.944;9.098;2023-04-29T07:04:46;101489.44;;;18.11;57.43
21109;BME280;10712;52.944;9.098;2023-04-29T07:07:15;101492.00;;;18.13;57.51
21109;BME280;10712;52.944;9.098;2023-04-29T07:09:40;101497.78;;;18.19;57.51
21109;BME280;10712;52.944;9.098;2023-04-29T07:12:06;101499.75;;;18.17;57.38
21109;BME280;10712;52.944;9.098;2023-04-29T07:14:32;101504.78;;;18.22;56.99
21109;BME280;10712;52.944;9.098;2023-04-29T07:16:58;101509.78;;;18.15;56.88
21109;BME280;10712;52.944;9.098;2023-04-29T07:19:23;101507.09;;;18.15;57.29
21109;BME280;10712;52.944;9.098;2023-04-29T07:21:49;101509.28;;;18.10;57.46
21109;BME280;10712;52.944;9.098;2023-04-29T07:24:16;101510.75;;;18.14;57.12
21109;BME280;10712;52.944;9.098;2023-04-29T07:26:45;101519.72;;;18.15;57.34
21109;BME280;10712;52.944;9.098;2023-04-29T07:29:13;101515.53;;;18.10;57.26
21109;BME280;10712;52.944;9.098;2023-04-29T07:31:39;101517.97;;;18.02;57.21
21109;BME280;10712;52.944;9.098;2023-04-29T07:34:05;101535.16;;;18.13;56.81
21109;BME280;10712;52.944;9.098;2023-04-29T07:36:32;101534.66;;;18.19;56.82
21109;BME280;10712;52.944;9.098;2023-04-29T07:38:58;101538.09;;;18.21;57.10
21109;BME280;10712;52.944;9.098;2023-04-29T07:41:26;101543.03;;;18.27;56.82
21109;BME280;10712;52.944;9.098;2023-04-29T07:43:51;101553.09;;;18.25;56.93
21109;BME280;10712;52.944;9.098;2023-04-29T07:46:17;101562.88;;;18.26;56.68
21109;BME280;10712;52.944;9.098;2023-04-29T07:48:43;101560.06;;;18.27;56.77
21109;BME280;10712;52.944;9.098;2023-04-29T07:51:13;101569.66;;;18.31;56.67
21109;BME280;10712;52.944;9.098;2023-04-29T07:53:41;101570.75;;;18.29;56.98
21109;BME280;10712;52.944;9.098;2023-04-29T07:56:08;101571.50;;;18.31;56.81
21109;BME280;10712;52.944;9.098;2023-04-29T07:58:34;101573.56;;;18.27;56.33
21109;BME280;10712;52.944;9.098;2023-04-29T08:01:09;101573.84;;;18.35;56.32
21109;BME280;10712;52.944;9.098;2023-04-29T08:03:37;101577.88;;;18.41;56.30
21109;BME280;10712;52.944;9.098;2023-04-29T08:06:04;101578.63;;;18.43;56.08
21109;BME280;10712;52.944;9.098;2023-04-29T08:08:30;101574.69;;;18.47;56.31
21109;BME280;10712;52.944;9.098;2023-04-29T08:10:56;101586.88;;;18.53;56.29
21109;BME280;10712;52.944;9.098;2023-04-29T08:13:22;101586.03;;;18.52;55.91
21109;BME280;10712;52.944;9.098;2023-04-29T08:15:48;101592.44;;;18.62;55.70
21109;BME280;10712;52.944;9.098;2023-04-29T08:18:15;101591.84;;;18.59;55.76
21109;BME280;10712;52.944;9.098;2023-04-29T08:20:41;101592.94;;;18.78;54.84
21109;BME280;10712;52.944;9.098;2023-04-29T08:23:06;101597.50;;;18.89;54.65
21109;BME280;10712;52.944;9.098;2023-04-29T08:25:32;101602.28;;;18.97;54.86
21109;BME280;10712;52.944;9.098;2023-04-29T08:27:58;101603.78;;;19.01;54.64
21109;BME280;10712;52.944;9.098;2023-04-29T08:30:24;101606.97;;;19.06;54.46
21109;BME280;10712;52.944;9.098;2023-04-29T08:32:50;101601.91;;;19.12;53.69
21109;BME280;10712;52.944;9.098;2023-04-29T08:35:16;101600.69;;;19.05;53.38
21109;BME280;10712;52.944;9.098;2023-04-29T08:37:42;101612.38;;;18.95;52.61
21109;BME280;10712;52.944;9.098;2023-04-29T08:40:08;101608.56;;;18.86;51.83
21109;BME280;10712;52.944;9.098;2023-04-29T08:42:36;101613.34;;;18.94;51.55
21109;BME280;10712;52.944;9.098;2023-04-29T08:45:03;101620.44;;;19.17;51.49
21109;BME280;10712;52.944;9.098;2023-04-29T08:47:30;101618.25;;;19.22;50.98
21109;BME280;10712;52.944;9.098;2023-04-29T08:50:04;101610.88;;;19.24;50.98
21109;BME280;10712;52.944;9.098;2023-04-29T08:52:33;101619.97;;;19.34;50.89
21109;BME280;10712;52.944;9.098;2023-04-29T08:54:59;101623.88;;;19.41;51.23
21109;BME280;10712;52.944;9.098;2023-04-29T08:57:29;101634.19;;;19.36;49.63
21109;BME280;10712;52.944;9.098;2023-04-29T08:59:58;101635.69;;;19.40;50.28
21109;BME280;10712;52.944;9.098;2023-04-29T09:02:25;101636.16;;;19.45;50.00
21109;BME280;10712;52.944;9.098;2023-04-29T09:05:08;101633.97;;;19.50;49.42
21109;BME280;10712;52.944;9.098;2023-04-29T09:07:37;101630.41;;;19.61;49.20
21109;BME280;10712;52.944;9.098;2023-04-29T09:10:04;101638.81;;;19.79;49.25
21109;BME280;10712;52.944;9.098;2023-04-29T09:12:31;101634.09;;;19.92;49.78
21109;BME280;10712;52.944;9.098;2023-04-29T09:14:57;101643.69;;;19.96;49.23
21109;BME280;10712;52.944;9.098;2023-04-29T09:17:44;101635.31;;;19.99;49.47
21109;BME280;10712;52.944;9.098;2023-04-29T09:23:13;101648.38;;;19.94;48.56
21109;BME280;10712;52.944;9.098;2023-04-29T09:25:39;101643.31;;;20.00;48.86
21109;BME280;10712;52.944;9.098;2023-04-29T09:28:14;101650.53;;;20.11;48.46
21109;BME280;10712;52.944;9.098;2023-04-29T09:30:47;101654.22;;;20.10;48.19
21109;BME280;10712;52.944;9.098;2023-04-29T09:33:13;101642.28;;;20.13;48.41
21109;BME280;10712;52.944;9.098;2023-04-29T09:35:40;101646.91;;;20.22;48.52
21109;BME280;10712;52.944;9.098;2023-04-29T09:38:14;101645.81;;;20.24;49.02
21109;BME280;10712;52.944;9.098;2023-04-29T09:40:42;101648.25;;;20.38;48.43
21109;BME280;10712;52.944;9.098;2023-04-29T09:43:16;101649.69;;;20.42;47.13
21109;BME280;10712;52.944;9.098;2023-04-29T09:45:47;101655.03;;;20.33;46.68
21109;BME280;10712;52.944;9.098;2023-04-29T09:48:14;101654.91;;;20.23;46.00
21109;BME280;10712;52.944;9.098;2023-04-29T09:50:42;101667.13;;;20.18;45.37
21109;BME280;10712;52.944;9.098;2023-04-29T09:53:10;101657.63;;;20.23;44.12
21109;BME280;10712;52.944;9.098;2023-04-29T09:58:32;101669.75;;;20.61;45.00
21109;BME280;10712;52.944;9.098;2023-04-29T10:01:02;101670.44;;;20.74;44.27
21109;BME280;10712;52.944;9.098;2023-04-29T10:03:33;101673.19;;;20.63;43.64
21109;BME280;10712;52.944;9.098;2023-04-29T10:06:00;101671.03;;;20.77;43.21
21109;BME280;10712;52.944;9.098;2023-04-29T10:08:29;101671.34;;;20.84;43.71
21109;BME280;10712;52.944;9.098;2023-04-29T10:11:01;101674.31;;;21.02;43.51
21109;BME280;10712;52.944;9.098;2023-04-29T10:13:28;101675.22;;;21.12;43.49
21109;BME280;10712;52.944;9.098;2023-04-29T10:18:51;101678.22;;;20.88;43.03
21109;BME280;10712;52.944;9.098;2023-04-29T10:21:26;101676.63;;;21.06;43.37
21109;BME280;10712;52.944;9.098;2023-04-29T10:23:53;101684.81;;;20.95;42.92
21109;BME280;10712;52.944;9.098;2023-04-29T10:26:24;101679.66;;;21.13;43.41
21109;BME280;10712;52.944;9.098;2023-04-29T10:28:54;101675.34;;;21.10;43.14
21109;BME280;10712;52.944;9.098;2023-04-29T10:31:21;101685.88;;;21.25;43.18
21109;BME280;10712;52.944;9.098;2023-04-29T10:33:55;101680.50;;;21.13;42.58
21109;BME280;10712;52.944;9.098;2023-04-29T10:36:27;101675.94;;;21.35;42.90
21109;BME280;10712;52.944;9.098;2023-04-29T10:39:02;101678.97;;;21.51;43.07
21109;BME280;10712;52.944;9.098;2023-04-29T10:41:36;101682.59;;;21.31;42.87
21109;BME280;10712;52.944;9.098;2023-04-29T10:44:07;101674.03;;;21.56;42.65
21109;BME280;10712;52.944;9.098;2023-04-29T10:46:33;101680.00;;;21.59;42.81
21109;BME280;10712;52.944;9.098;2023-04-29T10:49:04;101688.84;;;21.52;42.26
21109;BME280;10712;52.944;9.098;2023-04-29T10:51:40;101690.53;;;21.43;41.93
21109;BME280;10712;52.944;9.098;2023-04-29T10:56:47;101684.97;;;21.94;41.97
21109;BME280;10712;52.944;9.098;2023-04-29T10:59:19;101682.44;;;22.03;41.47
21109;BME280;10712;52.944;9.098;2023-04-29T11:01:48;101682.03;;;22.17;42.15
21109;BME280;10712;52.944;9.098;2023-04-29T11:04:16;101677.31;;;22.09;42.42
21109;BME280;10712;52.944;9.098;2023-04-29T11:06:44;101688.97;;;21.90;41.74
21109;BME280;10712;52.944;9.098;2023-04-29T11:09:34;101681.38;;;21.44;41.32
21109;BME280;10712;52.944;9.098;2023-04-29T11:12:08;101682.59;;;21.61;42.24
21109;BME280;10712;52.944;9.098;2023-04-29T11:14:48;101678.38;;;21.87;42.11
21109;BME280;10712;52.944;9.098;2023-04-29T11:17:17;101682.44;;;22.03;41.95
21109;BME280;10712;52.944;9.098;2023-04-29T11:19:50;101691.88;;;21.98;42.04
21109;BME280;10712;52.944;9.098;2023-04-29T11:25:07;101687.75;;;21.74;41.08
21109;BME280;10712;52.944;9.098;2023-04-29T11:27:37;101690.00;;;21.59;40.73
21109;BME280;10712;52.944;9.098;2023-04-29T11:30:05;101687.47;;;21.67;40.99
21109;BME280;10712;52.944;9.098;2023-04-29T11:32:38;101687.16;;;21.60;40.60
21109;BME280;10712;52.944;9.098;2023-04-29T11:35:15;101694.31;;;21.61;41.47
21109;BME280;10712;52.944;9.098;2023-04-29T11:37:43;101693.19;;;21.64;41.76
21109;BME280;10712;52.944;9.098;2023-04-29T11:40:11;101690.00;;;21.59;42.08
21109;BME280;10712;52.944;9.098;2023-04-29T11:42:46;101689.69;;;21.43;42.19
21109;BME280;10712;52.944;9.098;2023-04-29T11:45:13;101693.19;;;21.34;42.69
21109;BME280;10712;52.944;9.098;2023-04-29T11:47:47;101696.53;;;21.47;42.70
21109;BME280;10712;52.944;9.098;2023-04-29T11:50:16;101695.22;;;21.41;42.18
21109;BME280;10712;52.944;9.098;2023-04-29T11:52:46;101707.81;;;21.52;42.15
21109;BME280;10712;52.944;9.098;2023-04-29T11:55:12;101708.66;;;21.43;41.49
21109;BME280;10712;52.944;9.098;2023-04-29T11:57:39;101705.41;;;21.49;40.84
21109;BME280;10712;52.944;9.098;2023-04-29T12:00:09;101712.53;;;21.50;40.77
21109;BME280;10712;52.944;9.098;2023-04-29T12:02:37;101704.84;;;21.55;40.66
21109;BME280;10712;52.944;9.098;2023-04-29T12:05:07;101706.28;;;21.59;40.89
21109;BME280;10712;52.944;9.098;2023-04-29T12:07:38;101713.72;;;21.57;40.38
21109;BME280;10712;52.944;9.098;2023-04-29T12:10:08;101709.03;;;21.78;40.48
21109;BME280;10712;52.944;9.098;2023-04-29T12:12:36;101711.75;;;21.78;40.42
21109;BME280;10712;52.944;9.098;2023-04-29T12:15:05;101707.09;;;21.90;39.05
21109;BME280;10712;52.944;9.098;2023-04-29T12:17:32;101711.88;;;21.97;38.87
21109;BME280;10712;52.944;9.098;2023-04-29T12:19:58;101712.03;;;22.06;38.74
21109;BME280;10712;52.944;9.098;2023-04-29T12:22:31;101709.16;;;21.67;38.19
21109;BME280;10712;52.944;9.098;2023-04-29T12:24:57;101713.66;;;21.87;38.42
21109;BME280;10712;52.944;9.098;2023-04-29T12:27:23;101711.56;;;22.00;38.37
21109;BME280;10712;52.944;9.098;2023-04-29T12:29:51;101720.47;;;22.12;38.50
21109;BME280;10712;52.944;9.098;2023-04-29T12:32:21;101721.63;;;22.29;38.06
21109;BME280;10712;52.944;9.098;2023-04-29T12:34:50;101719.44;;;22.13;37.99
21109;BME280;10712;52.944;9.098;2023-04-29T12:37:22;101731.06;;;22.44;37.87
21109;BME280;10712;52.944;9.098;2023-04-29T12:39:49;101723.03;;;22.62;38.00
21109;BME280;10712;52.944;9.098;2023-04-29T12:42:15;101720.34;;;22.71;37.34
21109;BME280;10712;52.944;9.098;2023-04-29T12:44:44;101719.91;;;22.66;36.61
21109;BME280;10712;52.944;9.098;2023-04-29T12:47:13;101731.19;;;22.71;36.86
21109;BME280;10712;52.944;9.098;2023-04-29T12:49:44;101731.97;;;22.73;36.42
21109;BME280;10712;52.944;9.098;2023-04-29T12:52:10;101728.34;;;22.92;37.26
21109;BME280;10712;52.944;9.098;2023-04-29T12:54:40;101737.06;;;22.96;34.91
21109;BME280;10712;52.944;9.098;2023-04-29T12:57:11;101735.66;;;22.92;36.00
21109;BME280;10712;52.944;9.098;2023-04-29T12:59:37;101728.75;;;22.97;36.02
21109;BME280;10712;52.944;9.098;2023-04-29T13:02:05;101738.22;;;22.84;35.53
21109;BME280;10712;52.944;9.098;2023-04-29T13:04:30;101735.97;;;22.89;35.33
21109;BME280;10712;52.944;9.098;2023-04-29T13:06:56;101736.22;;;22.86;34.57
21109;BME280;10712;52.944;9.098;2023-04-29T13:09:28;101737.94;;;22.87;35.19
21109;BME280;10712;52.944;9.098;2023-04-29T13:11:55;101742.81;;;22.93;35.28
21109;BME280;10712;52.944;9.098;2023-04-29T13:14:21;101738.19;;;23.03;36.09
21109;BME280;10712;52.944;9.098;2023-04-29T13:16:47;101739.91;;;23.04;35.08
21109;BME280;10712;52.944;9.098;2023-04-29T13:19:13;101738.50;;;23.00;34.51
21109;BME280;10712;52.944;9.098;2023-04-29T13:21:38;101736.78;;;22.99;34.81
21109;BME280;10712;52.944;9.098;2023-04-29T13:24:04;101741.22;;;23.00;35.17